Time;durP1;ratioP1;P1;durP2;ratioP2;P2;SDS_P1;SDS_P2;PMS_P1;PMS_P2;Temp;Humidity;BMP_temperature;BMP_pressure;BME280_temperature;BME280_humidity;BME280_pressure;Samples;Min_cycle;Max_cycle;Signal;HPM_P1;HPM_P2
2023/05/18 00:00:09;;;;;;;10.80;3.97;;;;;;;;;;5015453;28;20014;-79
2023/05/18 00:02:39;;;;;;;15.23;4.37;;;;;;;;;;5002306;28;20015;-82
2023/05/18 00:05:11;;;;;;;17.93;3.90;;;;;;;;;;5018274;28;20038;-80
2023/05/18 00:07:39;;;;;;;16.75;4.53;;;;;;;;;;5012074;28;20034;-80
2023/05/18 00:10:06;;;;;;;13.50;4.90;;;;;;;;;;5013013;28;20022;-79
2023/05/18 00:12:39;;;;;;;13.43;3.63;;;;;;;;;;5006626;28;20022;-79
2023/05/18 00:15:09;;;;;;;11.17;3.80;;;;;;;;;;5011135;28;20207;-80
2023/05/18 00:17:35;;;;;;;15.80;4.10;;;;;;;;;;5007958;28;20008;-79
2023/05/18 00:20:04;;;;;;;11.20;3.70;;;;;;;;;;5015147;28;20023;-78
2023/05/18 00:22:33;;;;;;;16.20;3.97;;;;;;;;;;5010441;28;20019;-79
2023/05/18 00:25:01;;;;;;;12.20;3.97;;;;;;;;;;5012634;28;20015;-79
2023/05/18 00:27:27;;;;;;;10.97;4.07;;;;;;;;;;4993311;28;20035;-79
2023/05/18 00:29:53;;;;;;;17.87;3.83;;;;;;;;;;5013270;28;20014;-79
2023/05/18 00:32:20;;;;;;;18.80;5.20;;;;;;;;;;4998668;28;20035;-79
2023/05/18 00:34:46;;;;;;;20.23;4.23;;;;;;;;;;5015067;28;20022;-79
2023/05/18 00:37:12;;;;;;;12.20;3.97;;;;;;;;;;4997761;28;20003;-80
2023/05/18 00:39:40;;;;;;;16.03;4.73;;;;;;;;;;4997950;28;20057;-80
2023/05/18 00:42:06;;;;;;;12.17;3.83;;;;;;;;;;5013066;28;20019;-80
2023/05/18 00:44:32;;;;;;;13.53;4.50;;;;;;;;;;4997333;28;20025;-80
2023/05/18 00:46:59;;;;;;;13.10;4.27;;;;;;;;;;5013161;28;20051;-80
2023/05/18 00:49:27;;;;;;;14.37;3.73;;;;;;;;;;5011741;28;20216;-80
2023/05/18 00:51:54;;;;;;;10.10;3.73;;;;;;;;;;5016181;28;20035;-79
2023/05/18 00:54:20;;;;;;;18.07;4.30;;;;;;;;;;5014717;28;20085;-79
2023/05/18 00:56:47;;;;;;;12.60;4.40;;;;;;;;;;5011494;28;20299;-80
2023/05/18 00:59:14;;;;;;;14.20;3.93;;;;;;;;;;5012157;28;20114;-79
2023/05/18 01:01:45;;;;;;;15.53;4.83;;;;;;;;;;5011508;28;20039;-79
2023/05/18 01:04:12;;;;;;;11.20;3.70;;;;;;;;;;5010532;28;20042;-80
2023/05/18 01:06:39;;;;;;;13.67;4.60;;;;;;;;;;5014772;28;20042;-81
2023/05/18 01:09:06;;;;;;;12.60;4.37;;;;;;;;;;5010699;28;20019;-80
2023/05/18 01:11:51;;;;;;;9.67;3.83;;;;;;;;;;5016291;28;20022;-79
2023/05/18 01:14:22;;;;;;;15.10;4.37;;;;;;;;;;4998288;28;20055;-80
2023/05/18 01:16:52;;;;;;;13.07;4.30;;;;;;;;;;4998397;28;20035;-79
2023/05/18 01:19:38;;;;;;;9.33;3.93;;;;;;;;;;5014815;28;20102;-80
2023/05/18 01:22:13;;;;;;;11.37;4.23;;;;;;;;;;4970014;28;20062;-79
2023/05/18 01:24:44;;;;;;;13.13;3.90;;;;;;;;;;4996901;28;20049;-78
2023/05/18 01:27:18;;;;;;;16.73;4.80;;;;;;;;;;5014505;28;20090;-79
2023/05/18 01:29:48;;;;;;;14.73;4.03;;;;;;;;;;5012586;28;20022;-80
2023/05/18 01:32:20;;;;;;;10.50;4.60;;;;;;;;;;5012064;28;20035;-79
2023/05/18 01:34:48;;;;;;;15.77;4.70;;;;;;;;;;5010841;28;20010;-79
2023/05/18 01:37:14;;;;;;;15.30;4.73;;;;;;;;;;5012888;28;20034;-79
2023/05/18 01:39:41;;;;;;;14.00;4.47;;;;;;;;;;5009733;28;20123;-80
2023/05/18 01:42:14;;;;;;;11.50;3.80;;;;;;;;;;5014767;28;20018;-80
2023/05/18 01:44:42;;;;;;;12.63;4.30;;;;;;;;;;4996663;28;20042;-79
2023/05/18 01:47:13;;;;;;;17.20;4.33;;;;;;;;;;5012165;28;20022;-80
2023/05/18 01:49:45;;;;;;;14.33;4.80;;;;;;;;;;5008721;28;20015;-80
2023/05/18 01:52:17;;;;;;;13.75;4.78;;;;;;;;;;5009715;28;20099;-79
2023/05/18 01:54:43;;;;;;;;;;;;;;;;;;5012814;28;20041;-80
2023/05/18 01:57:12;;;;;;;15.33;3.83;;;;;;;;;;5009772;28;19903;-80
2023/05/18 01:59:38;;;;;;;16.97;4.73;;;;;;;;;;4994110;28;20030;-79
2023/05/18 02:02:05;;;;;;;14.47;4.80;;;;;;;;;;5010107;28;20038;-79
2023/05/18 02:04:31;;;;;;;14.07;4.20;;;;;;;;;;5010018;28;20031;-80
2023/05/18 02:07:00;;;;;;;14.23;4.13;;;;;;;;;;4996732;28;20044;-81
2023/05/18 02:09:26;;;;;;;11.17;4.33;;;;;;;;;;4992005;28;20179;-80
2023/05/18 02:11:54;;;;;;;9.93;3.93;;;;;;;;;;5012869;28;20038;-80
2023/05/18 02:14:23;;;;;;;14.43;4.33;;;;;;;;;;5011336;28;20057;-80
2023/05/18 02:16:51;;;;;;;18.07;4.20;;;;;;;;;;5011644;28;20035;-79
2023/05/18 02:19:23;;;;;;;10.83;4.17;;;;;;;;;;4998927;28;20132;-79
2023/05/18 02:21:49;;;;;;;19.03;4.73;;;;;;;;;;5010801;28;20052;-80
2023/05/18 02:24:16;;;;;;;10.80;4.03;;;;;;;;;;4994718;28;20031;-81
2023/05/18 02:26:42;;;;;;;15.77;4.60;;;;;;;;;;5012761;28;20027;-81
2023/05/18 02:29:10;;;;;;;13.07;4.47;;;;;;;;;;4995566;28;20059;-81
2023/05/18 02:31:36;;;;;;;13.07;4.70;;;;;;;;;;4998582;28;20038;-80
2023/05/18 02:34:03;;;;;;;14.57;4.20;;;;;;;;;;4993448;28;20018;-81
2023/05/18 02:36:35;;;;;;;15.40;4.33;;;;;;;;;;5014031;28;20046;-81
2023/05/18 02:39:08;;;;;;;16.63;4.53;;;;;;;;;;4997637;28;20022;-82
2023/05/18 02:41:35;;;;;;;16.23;4.70;;;;;;;;;;4997342;28;20034;-81
2023/05/18 02:44:01;;;;;;;17.57;4.93;;;;;;;;;;5008356;28;20026;-81
2023/05/18 02:46:27;;;;;;;10.83;4.10;;;;;;;;;;5008684;28;20024;-80
2023/05/18 02:48:56;;;;;;;15.00;4.90;;;;;;;;;;5007246;28;20102;-80
2023/05/18 02:51:22;;;;;;;14.20;4.73;;;;;;;;;;5014569;28;20030;-81
2023/05/18 02:53:51;;;;;;;13.63;4.57;;;;;;;;;;4997627;28;20035;-81
2023/05/18 02:56:17;;;;;;;19.83;5.23;;;;;;;;;;5000712;28;20026;-82
2023/05/18 02:58:44;;;;;;;15.93;5.50;;;;;;;;;;5013470;28;20030;-81
2023/05/18 03:01:13;;;;;;;17.20;4.93;;;;;;;;;;5012689;28;20030;-81
2023/05/18 03:03:41;;;;;;;12.00;5.60;;;;;;;;;;5012561;28;20034;-81
2023/05/18 03:06:14;;;;;;;16.90;5.00;;;;;;;;;;5012745;28;20035;-80
2023/05/18 03:08:41;;;;;;;14.57;4.83;;;;;;;;;;4996376;28;20035;-80
2023/05/18 03:11:07;;;;;;;16.43;4.83;;;;;;;;;;4996865;28;20035;-81
2023/05/18 03:13:33;;;;;;;10.50;4.60;;;;;;;;;;5000578;28;20050;-82
2023/05/18 03:15:59;;;;;;;12.37;5.23;;;;;;;;;;4996772;28;20026;-81
2023/05/18 03:18:28;;;;;;;16.63;4.50;;;;;;;;;;5011974;28;20031;-82
2023/05/18 03:20:55;;;;;;;15.40;5.07;;;;;;;;;;5011599;28;20033;-80
2023/05/18 03:23:21;;;;;;;10.37;4.50;;;;;;;;;;5007783;28;20067;-81
2023/05/18 03:25:52;;;;;;;13.90;5.10;;;;;;;;;;5012394;28;20078;-81
2023/05/18 03:28:18;;;;;;;12.83;4.63;;;;;;;;;;5011879;28;20263;-81
2023/05/18 03:30:44;;;;;;;10.67;4.40;;;;;;;;;;5007311;28;20211;-81
2023/05/18 03:33:10;;;;;;;14.90;5.40;;;;;;;;;;4996921;28;20099;-81
2023/05/18 03:35:39;;;;;;;18.27;5.40;;;;;;;;;;4994128;28;20098;-80
2023/05/18 03:38:06;;;;;;;12.50;4.90;;;;;;;;;;5011247;28;20032;-81
2023/05/18 03:40:34;;;;;;;11.50;4.73;;;;;;;;;;5011839;28;20046;-82
2023/05/18 03:43:00;;;;;;;12.33;5.23;;;;;;;;;;5009399;28;20018;-81
2023/05/18 03:45:26;;;;;;;15.60;6.20;;;;;;;;;;4993081;28;20047;-81
2023/05/18 03:47:55;;;;;;;16.63;5.10;;;;;;;;;;5012129;28;20042;-81
2023/05/18 03:50:23;;;;;;;14.57;5.13;;;;;;;;;;5010176;28;20018;-82
2023/05/18 03:52:51;;;;;;;9.27;4.23;;;;;;;;;;5012984;28;20027;-80
2023/05/18 03:55:20;;;;;;;20.13;5.73;;;;;;;;;;4996304;28;20007;-82
2023/05/18 03:57:46;;;;;;;14.07;5.70;;;;;;;;;;4996789;28;20057;-81
2023/05/18 04:00:12;;;;;;;18.70;4.73;;;;;;;;;;4998245;28;20026;-82
2023/05/18 04:02:39;;;;;;;14.80;5.30;;;;;;;;;;5013875;28;20054;-82
2023/05/18 04:05:05;;;;;;;18.50;5.83;;;;;;;;;;5009748;28;20022;-81
2023/05/18 04:07:31;;;;;;;14.13;5.00;;;;;;;;;;5010546;28;20043;-81
2023/05/18 04:09:57;;;;;;;14.17;4.83;;;;;;;;;;5011142;28;20021;-81
2023/05/18 04:12:23;;;;;;;17.83;5.73;;;;;;;;;;5013544;28;20074;-81
2023/05/18 04:14:49;;;;;;;16.10;4.87;;;;;;;;;;4997173;28;20019;-81
2023/05/18 04:17:16;;;;;;;11.73;4.90;;;;;;;;;;5011847;28;20031;-82
2023/05/18 04:19:43;;;;;;;13.00;4.83;;;;;;;;;;4993467;28;20018;-80
2023/05/18 04:22:09;;;;;;;11.87;4.83;;;;;;;;;;4999290;28;20027;-81
2023/05/18 04:24:36;;;;;;;15.40;5.03;;;;;;;;;;5009116;28;20170;-82
2023/05/18 04:27:02;;;;;;;20.50;5.07;;;;;;;;;;5008962;28;20043;-82
2023/05/18 04:29:29;;;;;;;18.93;6.53;;;;;;;;;;4994735;28;20038;-80
2023/05/18 04:32:01;;;;;;;11.60;5.40;;;;;;;;;;4994231;28;20034;-81
2023/05/18 04:34:28;;;;;;;15.00;4.95;;;;;;;;;;4999535;28;20035;-80
2023/05/18 04:36:57;;;;;;;16.77;5.40;;;;;;;;;;5010673;28;20031;-80
2023/05/18 04:39:24;;;;;;;20.43;6.13;;;;;;;;;;5012566;28;20019;-81
2023/05/18 04:41:56;;;;;;;8.03;4.40;;;;;;;;;;5012612;28;20019;-80
2023/05/18 04:44:24;;;;;;;21.97;5.20;;;;;;;;;;5015120;28;20034;-81
2023/05/18 04:46:52;;;;;;;13.80;5.20;;;;;;;;;;5013131;28;20029;-81
2023/05/18 04:49:21;;;;;;;8.57;5.07;;;;;;;;;;5013011;28;20031;-81
2023/05/18 04:51:48;;;;;;;13.90;5.00;;;;;;;;;;5008887;28;20023;-80
2023/05/18 04:54:17;;;;;;;12.57;5.00;;;;;;;;;;5014628;28;20039;-81
2023/05/18 04:56:46;;;;;;;12.60;5.27;;;;;;;;;;5014586;28;20027;-81
2023/05/18 04:59:12;;;;;;;14.03;5.17;;;;;;;;;;5007965;28;20038;-82
2023/05/18 05:01:38;;;;;;;13.67;5.50;;;;;;;;;;5011058;28;20046;-79
2023/05/18 05:04:05;;;;;;;13.43;5.20;;;;;;;;;;4997500;28;20081;-82
2023/05/18 05:06:33;;;;;;;13.70;4.70;;;;;;;;;;5009342;28;20023;-81
2023/05/18 05:08:59;;;;;;;11.87;4.43;;;;;;;;;;5015004;28;20061;-82
2023/05/18 05:11:25;;;;;;;10.60;4.80;;;;;;;;;;5014927;28;20022;-81
2023/05/18 05:13:54;;;;;;;12.80;4.70;;;;;;;;;;5010622;28;20015;-81
2023/05/18 05:16:20;;;;;;;25.23;6.20;;;;;;;;;;5011289;28;20042;-79
2023/05/18 05:18:46;;;;;;;13.93;4.50;;;;;;;;;;4992187;28;20023;-79
2023/05/18 05:21:12;;;;;;;15.30;5.07;;;;;;;;;;5012441;28;20046;-79
2023/05/18 05:23:40;;;;;;;14.07;4.70;;;;;;;;;;5010706;28;20027;-80
2023/05/18 05:26:06;;;;;;;14.90;5.50;;;;;;;;;;4997185;28;20037;-80
2023/05/18 05:28:33;;;;;;;15.00;5.07;;;;;;;;;;5013590;28;20074;-78
2023/05/18 05:30:59;;;;;;;21.50;4.77;;;;;;;;;;4992953;28;20209;-79
2023/05/18 05:33:25;;;;;;;18.43;5.20;;;;;;;;;;4997944;28;20024;-79
2023/05/18 05:35:53;;;;;;;8.80;4.60;;;;;;;;;;4998892;28;20051;-80
2023/05/18 05:38:21;;;;;;;26.77;5.80;;;;;;;;;;5007196;28;20022;-80
2023/05/18 05:40:47;;;;;;;11.73;4.30;;;;;;;;;;5006736;28;20098;-79
2023/05/18 05:43:13;;;;;;;18.03;4.97;;;;;;;;;;4994414;28;20015;-80
2023/05/18 05:45:39;;;;;;;19.20;4.90;;;;;;;;;;5013535;28;20030;-80
2023/05/18 05:48:05;;;;;;;15.70;4.87;;;;;;;;;;5007597;28;20065;-79
2023/05/18 05:50:34;;;;;;;16.20;5.00;;;;;;;;;;5011031;28;20040;-80
2023/05/18 05:53:00;;;;;;;12.17;4.37;;;;;;;;;;5012293;28;20015;-81
2023/05/18 05:55:26;;;;;;;11.73;4.67;;;;;;;;;;5011426;28;20018;-80
2023/05/18 05:57:52;;;;;;;16.50;4.87;;;;;;;;;;4999950;28;20095;-79
2023/05/18 06:00:18;;;;;;;15.13;4.77;;;;;;;;;;4999222;28;20019;-79
2023/05/18 06:02:47;;;;;;;12.27;4.53;;;;;;;;;;5011323;28;20055;-79
2023/05/18 06:05:13;;;;;;;14.07;4.47;;;;;;;;;;5010256;28;20035;-80
2023/05/18 06:07:39;;;;;;;11.53;4.70;;;;;;;;;;5009051;28;20053;-79
2023/05/18 06:10:08;;;;;;;16.23;4.70;;;;;;;;;;5008656;28;20019;-79
2023/05/18 06:12:34;;;;;;;10.90;4.10;;;;;;;;;;4993549;28;20035;-80
2023/05/18 06:15:00;;;;;;;15.20;4.70;;;;;;;;;;4996185;28;20014;-80
2023/05/18 06:17:29;;;;;;;13.63;4.23;;;;;;;;;;4995695;28;20014;-79
2023/05/18 06:19:55;;;;;;;11.93;3.63;;;;;;;;;;5012000;28;20027;-81
2023/05/18 06:22:24;;;;;;;12.40;4.57;;;;;;;;;;5011249;28;20022;-81
2023/05/18 06:24:50;;;;;;;13.07;4.23;;;;;;;;;;5009298;28;20019;-80
2023/05/18 06:27:20;;;;;;;8.43;3.60;;;;;;;;;;4993891;28;20063;-79
2023/05/18 06:29:46;;;;;;;18.00;4.03;;;;;;;;;;5013610;28;20043;-81
2023/05/18 06:32:30;;;;;;;15.17;4.90;;;;;;;;;;5010770;28;20053;-80
2023/05/18 06:34:56;;;;;;;11.97;4.60;;;;;;;;;;5037846;22;20346;-78
2023/05/18 06:37:22;;;;;;;13.07;4.07;;;;;;;;;;5007269;28;20071;-79
2023/05/18 06:39:48;;;;;;;13.27;4.07;;;;;;;;;;5156707;23;20289;-80
2023/05/18 06:42:14;;;;;;;13.33;4.23;;;;;;;;;;4998123;28;20023;-79
2023/05/18 06:44:56;;;;;;;12.30;5.03;;;;;;;;;;4999453;28;20033;-80
2023/05/18 06:47:22;;;;;;;11.23;5.00;;;;;;;;;;5013358;28;20030;-80
2023/05/18 06:49:48;;;;;;;14.00;4.70;;;;;;;;;;4995096;28;20023;-78
2023/05/18 06:52:14;;;;;;;18.63;5.13;;;;;;;;;;4990668;28;20026;-79
2023/05/18 06:54:40;;;;;;;12.97;5.40;;;;;;;;;;4997846;28;20034;-79
2023/05/18 06:57:07;;;;;;;14.37;4.30;;;;;;;;;;4995552;28;20039;-80
2023/05/18 06:59:37;;;;;;;15.67;5.77;;;;;;;;;;4996643;28;20018;-80
2023/05/18 07:02:03;;;;;;;18.80;5.07;;;;;;;;;;5012847;28;20030;-79
2023/05/18 07:04:29;;;;;;;13.53;3.00;;;;;;;;;;4991279;28;20027;-78
2023/05/18 07:06:55;;;;;;;9.43;2.83;;;;;;;;;;4997895;28;20034;-79
2023/05/18 07:09:22;;;;;;;12.37;3.17;;;;;;;;;;4990897;28;20018;-81
2023/05/18 07:11:48;;;;;;;9.20;2.93;;;;;;;;;;4991973;28;20046;-79
2023/05/18 07:14:14;;;;;;;9.87;3.10;;;;;;;;;;4997999;28;20027;-80
2023/05/18 07:16:42;;;;;;;14.53;3.03;;;;;;;;;;4997482;28;20022;-81
2023/05/18 07:19:13;;;;;;;14.43;3.20;;;;;;;;;;4998606;28;20018;-79
2023/05/18 07:21:44;;;;;;;8.73;3.07;;;;;;;;;;4995478;28;20015;-79
2023/05/18 07:24:10;;;;;;;14.80;3.13;;;;;;;;;;4991509;28;20026;-79
2023/05/18 07:26:39;;;;;;;9.00;3.23;;;;;;;;;;4990958;28;20026;-80
2023/05/18 07:29:07;;;;;;;15.53;3.03;;;;;;;;;;4998769;28;20027;-80
2023/05/18 07:31:37;;;;;;;13.70;3.93;;;;;;;;;;4997312;28;20026;-80
2023/05/18 07:34:03;;;;;;;14.37;4.60;;;;;;;;;;5007140;28;20046;-79
2023/05/18 07:36:29;;;;;;;8.67;2.50;;;;;;;;;;4990788;28;20047;-79
2023/05/18 07:38:58;;;;;;;19.87;3.57;;;;;;;;;;5001633;28;20034;-79
2023/05/18 07:41:26;;;;;;;10.03;2.73;;;;;;;;;;4992535;28;20039;-80
2023/05/18 07:43:53;;;;;;;11.03;2.93;;;;;;;;;;5001605;28;20164;-80
2023/05/18 07:46:19;;;;;;;10.77;3.77;;;;;;;;;;4995636;28;20082;-80
2023/05/18 07:48:45;;;;;;;6.33;2.33;;;;;;;;;;5001390;28;20042;-80
2023/05/18 07:51:12;;;;;;;13.47;2.47;;;;;;;;;;4998145;28;20127;-82
2023/05/18 07:53:46;;;;;;;9.07;2.70;;;;;;;;;;5001003;28;20031;-80
2023/05/18 07:56:12;;;;;;;8.17;2.77;;;;;;;;;;5001708;28;20057;-80
2023/05/18 07:58:41;;;;;;;8.87;2.83;;;;;;;;;;4995222;28;20031;-79
2023/05/18 08:01:07;;;;;;;9.23;3.33;;;;;;;;;;5012431;28;20019;-81
2023/05/18 08:03:35;;;;;;;9.30;2.50;;;;;;;;;;4999322;28;20058;-79
2023/05/18 08:06:01;;;;;;;12.03;3.33;;;;;;;;;;4994980;28;20042;-79
2023/05/18 08:08:27;;;;;;;16.63;3.33;;;;;;;;;;4995844;28;20030;-79
2023/05/18 08:10:53;;;;;;;13.03;3.93;;;;;;;;;;4993879;28;20099;-79
2023/05/18 08:13:20;;;;;;;13.50;4.47;;;;;;;;;;5000176;28;20015;-80
2023/05/18 08:15:48;;;;;;;18.77;2.83;;;;;;;;;;4995032;28;20018;-79
2023/05/18 08:18:14;;;;;;;11.33;3.10;;;;;;;;;;4991959;28;20034;-80
2023/05/18 08:20:40;;;;;;;8.23;2.57;;;;;;;;;;4996893;28;20019;-80
2023/05/18 08:23:06;;;;;;;13.13;2.73;;;;;;;;;;4998112;28;20100;-79
2023/05/18 08:25:32;;;;;;;13.40;3.27;;;;;;;;;;4995574;28;20026;-79
2023/05/18 08:27:58;;;;;;;9.67;3.03;;;;;;;;;;5000609;28;20043;-80
2023/05/18 08:30:25;;;;;;;10.43;2.30;;;;;;;;;;4993159;28;20019;-79
2023/05/18 08:32:55;;;;;;;18.60;2.57;;;;;;;;;;4997068;28;20018;-78
2023/05/18 08:35:24;;;;;;;6.00;2.13;;;;;;;;;;4999948;28;20078;-80
2023/05/18 08:37:50;;;;;;;11.83;2.97;;;;;;;;;;5000598;28;20226;-80
2023/05/18 08:40:16;;;;;;;8.40;2.27;;;;;;;;;;4994188;28;20098;-80
2023/05/18 08:42:47;;;;;;;8.70;2.83;;;;;;;;;;5007621;28;20019;-79
2023/05/18 08:45:13;;;;;;;11.10;2.90;;;;;;;;;;5009301;28;20039;-79
2023/05/18 08:47:42;;;;;;;11.23;3.37;;;;;;;;;;5000183;28;20053;-79
2023/05/18 08:50:12;;;;;;;7.93;2.60;;;;;;;;;;4997932;28;20053;-79
2023/05/18 08:52:41;;;;;;;15.37;3.23;;;;;;;;;;5000299;28;20015;-79
2023/05/18 08:55:07;;;;;;;12.07;3.57;;;;;;;;;;5001772;28;20011;-78
2023/05/18 08:57:39;;;;;;;7.57;2.37;;;;;;;;;;4999459;28;20204;-79
2023/05/18 09:00:08;;;;;;;9.82;2.75;;;;;;;;;;5006980;28;20041;-79
2023/05/18 09:02:35;;;;;;;11.37;2.90;;;;;;;;;;4999999;28;20026;-80
2023/05/18 09:05:02;;;;;;;12.47;1.83;;;;;;;;;;4999620;28;20023;-80
2023/05/18 09:07:28;;;;;;;9.27;2.00;;;;;;;;;;5002454;28;20023;-80
2023/05/18 09:09:54;;;;;;;12.30;2.40;;;;;;;;;;5000026;28;20078;-80
2023/05/18 09:12:24;;;;;;;12.37;3.47;;;;;;;;;;5009445;28;20090;-79
2023/05/18 09:14:50;;;;;;;13.83;2.53;;;;;;;;;;4999934;28;20019;-78
2023/05/18 09:17:22;;;;;;;12.10;2.10;;;;;;;;;;4997921;28;20041;-80
2023/05/18 09:19:50;;;;;;;7.70;1.87;;;;;;;;;;4992938;28;20049;-79
2023/05/18 09:22:16;;;;;;;8.47;2.23;;;;;;;;;;5007100;28;20027;-80
2023/05/18 09:24:46;;;;;;;6.50;1.90;;;;;;;;;;4999274;28;20256;-79
2023/05/18 09:27:12;;;;;;;10.20;2.50;;;;;;;;;;4999980;28;20034;-79
2023/05/18 09:29:52;;;;;;;9.77;2.40;;;;;;;;;;5015390;28;20050;-79
2023/05/18 09:32:19;;;;;;;9.43;2.63;;;;;;;;;;4999938;28;20045;-79
2023/05/18 09:34:48;;;;;;;7.63;2.23;;;;;;;;;;5014088;28;20018;-78
2023/05/18 09:37:18;;;;;;;9.33;2.40;;;;;;;;;;4998358;28;20057;-79
2023/05/18 09:39:47;;;;;;;8.73;2.37;;;;;;;;;;4998647;28;20050;-80
2023/05/18 09:42:13;;;;;;;10.87;2.47;;;;;;;;;;4991566;28;20035;-80
2023/05/18 09:44:39;;;;;;;7.67;2.10;;;;;;;;;;4997015;28;20034;-78
2023/05/18 09:47:09;;;;;;;11.70;2.63;;;;;;;;;;4991284;28;20045;-78
2023/05/18 09:49:36;;;;;;;10.07;1.83;;;;;;;;;;4990237;28;20034;-79
2023/05/18 09:52:04;;;;;;;11.97;3.03;;;;;;;;;;4997741;28;20043;-79
2023/05/18 09:54:30;;;;;;;9.23;2.03;;;;;;;;;;4996452;28;20086;-78
2023/05/18 09:56:57;;;;;;;9.90;2.33;;;;;;;;;;4996573;28;20022;-80
2023/05/18 09:59:23;;;;;;;9.33;2.50;;;;;;;;;;4997823;28;20069;-80
2023/05/18 10:02:04;;;;;;;9.37;2.10;;;;;;;;;;5006409;28;20033;-79
2023/05/18 10:04:40;;;;;;;7.77;2.20;;;;;;;;;;4997047;28;20019;-79
2023/05/18 10:07:11;;;;;;;13.75;2.47;;;;;;;;;;5004759;28;20047;-78
2023/05/18 10:09:40;;;;;;;8.83;2.07;;;;;;;;;;5012902;28;20018;-79
2023/05/18 10:12:21;;;;;;;12.60;2.53;;;;;;;;;;5006917;28;20040;-79
2023/05/18 10:14:48;;;;;;;12.47;2.47;;;;;;;;;;4998173;28;21168;-80
2023/05/18 10:17:18;;;;;;;9.07;2.00;;;;;;;;;;4996952;28;20038;-79
2023/05/18 10:19:44;;;;;;;10.73;2.50;;;;;;;;;;4991908;28;20035;-78
2023/05/18 10:22:15;;;;;;;9.00;2.13;;;;;;;;;;4997678;28;20010;-79
2023/05/18 10:24:42;;;;;;;6.07;1.93;;;;;;;;;;4997254;28;20021;-79
2023/05/18 10:27:09;;;;;;;7.90;2.87;;;;;;;;;;4997053;28;20047;-81
2023/05/18 10:29:41;;;;;;;9.17;3.57;;;;;;;;;;4998476;28;20027;-77
2023/05/18 10:32:10;;;;;;;9.57;2.22;;;;;;;;;;4998383;28;20253;-79
2023/05/18 10:34:44;;;;;;;8.00;2.40;;;;;;;;;;4998524;28;20039;-82
2023/05/18 10:37:13;;;;;;;8.70;2.60;;;;;;;;;;4998207;28;20102;-78
2023/05/18 10:39:41;;;;;;;11.83;2.50;;;;;;;;;;4989740;28;20011;-80
2023/05/18 10:42:08;;;;;;;10.17;2.70;;;;;;;;;;5009116;28;20026;-78
2023/05/18 10:44:37;;;;;;;9.60;2.17;;;;;;;;;;5008875;28;20007;-79
2023/05/18 10:47:10;;;;;;;7.20;1.97;;;;;;;;;;4997467;28;20017;-79
2023/05/18 10:49:36;;;;;;;4.73;1.70;;;;;;;;;;5013980;28;20053;-80
2023/05/18 10:52:06;;;;;;;6.87;1.97;;;;;;;;;;4997400;28;20180;-79
2023/05/18 10:54:32;;;;;;;9.77;2.30;;;;;;;;;;4998167;28;20035;-78
2023/05/18 10:57:02;;;;;;;9.77;2.27;;;;;;;;;;4992744;28;20038;-80
2023/05/18 10:59:28;;;;;;;8.40;2.20;;;;;;;;;;4997464;28;20366;-79
2023/05/18 11:01:55;;;;;;;9.90;2.27;;;;;;;;;;5007346;28;20053;-78
2023/05/18 11:04:31;;;;;;;10.83;2.13;;;;;;;;;;4998249;28;20193;-80
2023/05/18 11:06:58;;;;;;;9.65;2.20;;;;;;;;;;5005210;28;20106;-78
2023/05/18 11:09:25;;;;;;;10.10;2.20;;;;;;;;;;4997546;28;20058;-79
2023/05/18 11:11:56;;;;;;;10.33;3.00;;;;;;;;;;4998577;28;20018;-79
2023/05/18 11:14:26;;;;;;;7.80;2.37;;;;;;;;;;5009152;28;20091;-79
2023/05/18 11:16:52;;;;;;;6.90;2.27;;;;;;;;;;5009013;28;20042;-79
2023/05/18 11:19:19;;;;;;;12.18;2.63;;;;;;;;;;5017788;28;20019;-79
2023/05/18 11:21:45;;;;;;;10.85;2.15;;;;;;;;;;5001126;28;20010;-79
2023/05/18 11:24:23;;;;;;;9.77;2.30;;;;;;;;;;5000659;28;20019;-82
2023/05/18 11:26:49;;;;;;;8.85;2.35;;;;;;;;;;4999827;28;20015;-80
2023/05/18 11:29:21;;;;;;;9.85;2.28;;;;;;;;;;4999648;28;20031;-79
2023/05/18 11:31:51;;;;;;;9.25;1.80;;;;;;;;;;5001000;28;20040;-78
2023/05/18 11:34:36;;;;;;;7.65;1.75;;;;;;;;;;5009939;28;20106;-78
2023/05/18 11:37:05;;;;;;;11.43;2.22;;;;;;;;;;4999814;28;20061;-79
2023/05/18 11:39:34;;;;;;;9.57;2.70;;;;;;;;;;5016269;28;20014;-79
2023/05/18 11:42:04;;;;;;;7.70;2.22;;;;;;;;;;4999987;28;20023;-80
2023/05/18 11:44:31;;;;;;;5.85;2.60;;;;;;;;;;4999158;28;20011;-78
2023/05/18 11:47:04;;;;;;;11.10;2.40;;;;;;;;;;5000626;28;20026;-79
2023/05/18 11:49:46;;;;;;;14.20;2.40;;;;;;;;;;5001085;28;20015;-79
2023/05/18 11:52:12;;;;;;;7.32;2.33;;;;;;;;;;5016454;28;20014;-79
2023/05/18 11:54:43;;;;;;;10.80;2.83;;;;;;;;;;5000067;28;20049;-78
2023/05/18 11:57:10;;;;;;;11.50;2.45;;;;;;;;;;5009058;28;20019;-79
2023/05/18 11:59:43;;;;;;;10.57;3.05;;;;;;;;;;5001657;28;20054;-79
2023/05/18 12:02:12;;;;;;;7.50;1.85;;;;;;;;;;4998287;28;20113;-80
2023/05/18 12:04:46;;;;;;;6.38;2.47;;;;;;;;;;5009522;28;20015;-78
2023/05/18 12:07:12;;;;;;;7.78;2.20;;;;;;;;;;4999775;28;20019;-80
2023/05/18 12:09:43;;;;;;;10.70;2.65;;;;;;;;;;5000894;28;20019;-79
2023/05/18 12:12:10;;;;;;;8.38;2.60;;;;;;;;;;4998752;28;20027;-80
2023/05/18 12:14:45;;;;;;;11.70;2.20;;;;;;;;;;4992920;28;20022;-79
2023/05/18 12:17:11;;;;;;;9.60;2.33;;;;;;;;;;4998092;28;20023;-78
2023/05/18 12:19:38;;;;;;;7.20;2.33;;;;;;;;;;5001369;28;20039;-78
2023/05/18 12:22:05;;;;;;;10.02;2.45;;;;;;;;;;5009318;28;20118;-78
2023/05/18 12:24:31;;;;;;;8.50;2.20;;;;;;;;;;4993602;28;20023;-78
2023/05/18 12:27:03;;;;;;;11.60;2.88;;;;;;;;;;4992344;28;20061;-81
2023/05/18 12:29:29;;;;;;;11.43;2.25;;;;;;;;;;5001444;28;20023;-81
2023/05/18 12:31:55;;;;;;;7.38;2.17;;;;;;;;;;4992981;28;20030;-81
2023/05/18 12:34:21;;;;;;;12.10;2.45;;;;;;;;;;5000039;28;20023;-81
2023/05/18 12:36:54;;;;;;;12.38;3.08;;;;;;;;;;4993029;28;20027;-78
2023/05/18 12:39:20;;;;;;;6.25;2.28;;;;;;;;;;5012002;28;20043;-79
2023/05/18 12:41:46;;;;;;;6.50;2.08;;;;;;;;;;5017307;28;20019;-78
2023/05/18 12:44:12;;;;;;;8.90;2.10;;;;;;;;;;5007770;28;20015;-79
2023/05/18 12:46:39;;;;;;;11.75;2.30;;;;;;;;;;4998199;28;20039;-78
2023/05/18 12:49:05;;;;;;;6.95;2.15;;;;;;;;;;5000713;28;20098;-81
2023/05/18 12:51:32;;;;;;;9.18;2.38;;;;;;;;;;5002320;28;20062;-79
2023/05/18 12:54:00;;;;;;;9.73;2.17;;;;;;;;;;4990546;28;20169;-79
2023/05/18 12:56:49;;;;;;;8.50;2.40;;;;;;;;;;4999084;28;20019;-79
2023/05/18 12:59:17;;;;;;;10.13;2.50;;;;;;;;;;5014287;28;20087;-79
2023/05/18 13:01:43;;;;;;;10.18;3.22;;;;;;;;;;5008289;28;20011;-80
2023/05/18 13:04:10;;;;;;;9.48;2.83;;;;;;;;;;5007589;28;20031;-79
2023/05/18 13:06:40;;;;;;;9.32;2.97;;;;;;;;;;4997580;28;20034;-79
2023/05/18 13:09:12;;;;;;;13.82;3.60;;;;;;;;;;5016434;28;20658;-78
2023/05/18 13:11:38;;;;;;;;;;;;;;;;;;5000672;28;20023;-78
2023/05/18 13:14:05;;;;;;;8.35;2.35;;;;;;;;;;4998661;28;19959;-79
2023/05/18 13:16:33;;;;;;;6.57;2.53;;;;;;;;;;5008698;28;20023;-79
2023/05/18 13:19:01;;;;;;;12.60;2.60;;;;;;;;;;4998119;28;20007;-79
2023/05/18 13:21:28;;;;;;;7.90;3.08;;;;;;;;;;4996227;28;20023;-78
2023/05/18 13:23:54;;;;;;;9.30;2.90;;;;;;;;;;5013734;28;20050;-79
2023/05/18 13:26:21;;;;;;;8.10;2.70;;;;;;;;;;4998360;28;20029;-80
2023/05/18 13:28:50;;;;;;;9.30;3.55;;;;;;;;;;5007778;28;20054;-78
2023/05/18 13:31:17;;;;;;;12.30;2.90;;;;;;;;;;4991807;28;20091;-79
2023/05/18 13:33:43;;;;;;;10.15;2.40;;;;;;;;;;5000916;28;20087;-79
2023/05/18 13:36:15;;;;;;;10.35;2.88;;;;;;;;;;5013555;28;20015;-79
2023/05/18 13:38:41;;;;;;;;;;;;;;;;;;4996713;28;20041;-79
2023/05/18 13:41:09;;;;;;;7.80;2.63;;;;;;;;;;4996492;28;19917;-78
2023/05/18 13:43:35;;;;;;;7.57;2.72;;;;;;;;;;4988182;28;20034;-78
2023/05/18 13:46:04;;;;;;;11.48;2.28;;;;;;;;;;4999559;28;20046;-79
2023/05/18 13:48:30;;;;;;;11.00;3.15;;;;;;;;;;4996926;28;20049;-78
2023/05/18 13:50:57;;;;;;;10.63;2.90;;;;;;;;;;4990603;28;20034;-77
2023/05/18 13:53:23;;;;;;;13.48;3.35;;;;;;;;;;4994091;28;20018;-77
2023/05/18 13:55:49;;;;;;;10.93;2.30;;;;;;;;;;4994089;28;20031;-78
2023/05/18 13:58:15;;;;;;;10.07;2.78;;;;;;;;;;4991192;28;20034;-78
2023/05/18 14:00:42;;;;;;;7.43;2.63;;;;;;;;;;4994428;28;20031;-79
2023/05/18 14:03:08;;;;;;;9.88;2.60;;;;;;;;;;5010375;28;20034;-78
2023/05/18 14:05:35;;;;;;;10.68;2.33;;;;;;;;;;4984732;28;20082;-79
2023/05/18 14:08:01;;;;;;;12.07;4.30;;;;;;;;;;5001397;28;20030;-79
2023/05/18 14:10:27;;;;;;;21.73;12.95;;;;;;;;;;4992532;28;20027;-77
2023/05/18 14:12:53;;;;;;;12.65;3.60;;;;;;;;;;4990685;28;20058;-79
2023/05/18 14:15:20;;;;;;;10.23;2.50;;;;;;;;;;4997814;28;20022;-80
2023/05/18 14:17:46;;;;;;;8.18;2.40;;;;;;;;;;4994168;28;20011;-79
2023/05/18 14:20:12;;;;;;;11.30;2.85;;;;;;;;;;4993979;28;20050;-79
2023/05/18 14:22:38;;;;;;;11.77;2.88;;;;;;;;;;4987993;28;20050;-78
2023/05/18 14:25:05;;;;;;;10.85;2.70;;;;;;;;;;4993143;28;21583;-78
2023/05/18 14:27:31;;;;;;;13.10;2.78;;;;;;;;;;4992055;28;20026;-79
2023/05/18 14:29:57;;;;;;;8.93;2.42;;;;;;;;;;5011042;28;21328;-77
2023/05/18 14:32:23;;;;;;;9.00;2.60;;;;;;;;;;4996843;28;20030;-79
2023/05/18 14:34:50;;;;;;;15.07;3.00;;;;;;;;;;4991318;28;20857;-80
2023/05/18 14:37:17;;;;;;;9.13;2.20;;;;;;;;;;4983552;28;20038;-82
2023/05/18 14:39:43;;;;;;;7.65;2.33;;;;;;;;;;4986704;28;20064;-78